Madeira Airport Funchal PT
ICAO: LPMA
IATA: FNC
Category: Medium
Scheduled Services: Yes

Elevation: 192 ft
TransAlt. 5000 ft.

Airport Communications:
APP:119.2
TWR:118.35

LPMA Zoom In..

Runways:

(A) RW 05 length 8140 ft width 148 ft
---- / hdg 51

(B) RW 23 length 8140 ft width 148 ft
---- / hdg 231

Location; LPMA
Day. 21 / Time. 23.30 Zulu
* QNH: 1013
* Temperature: 15° c. 59°f.
* Wind from: 350° Speed 08 kn.
Dewpoint: 09° c.
Visibility: 10 km or more.
Clouds: Broken 1500 ft.
Clouds: Scattered 3000 ft.

LPMA 212330Z 35008KT 9999 BKN015 SCT030 15/09 Q1013


Wind From 350°
Speed 08 kn.

YouTube Music Video
 
jpsmedia.com for Web Design  worldairports.se 2018   terms of use